Time;durP1;ratioP1;P1;durP2;ratioP2;P2;SDS_P1;SDS_P2;PMS_P1;PMS_P2;Temp;Humidity;BMP_temperature;BMP_pressure;BME280_temperature;BME280_humidity;BME280_pressure;Samples;Min_cycle;Max_cycle;Signal;HPM_P1;HPM_P2
2023/08/08 00:01:43;;;;;;;8.10;2.20;;;;;;;15.88;97.33;101448.28;5056818;28;20574;-76
2023/08/08 00:04:10;;;;;;;5.65;1.95;;;;;;;15.88;97.23;101457.09;5057035;28;20032;-76
2023/08/08 00:06:36;;;;;;;5.32;2.17;;;;;;;15.88;97.52;101445.66;5056024;28;20023;-76
2023/08/08 00:09:01;;;;;;;6.95;1.95;;;;;;;15.86;97.41;101445.75;5039286;28;20320;-76
2023/08/08 00:11:26;;;;;;;4.60;2.00;;;;;;;15.88;97.32;101454.44;5056481;28;20044;-76
2023/08/08 00:13:52;;;;;;;6.57;1.83;;;;;;;15.88;97.17;101453.56;5057020;28;20253;-76
2023/08/08 00:16:17;;;;;;;3.85;1.70;;;;;;;15.88;97.32;101449.16;5056477;28;20049;-76
2023/08/08 00:18:42;;;;;;;8.32;1.92;;;;;;;15.87;97.18;101439.53;5056522;28;20100;-76
2023/08/08 00:21:09;;;;;;;6.20;1.90;;;;;;;15.88;97.16;101453.56;5056665;28;20293;-76
2023/08/08 00:23:35;;;;;;;8.32;2.33;;;;;;;15.89;97.25;101455.28;5054359;28;20072;-76
2023/08/08 00:26:00;;;;;;;4.20;1.63;;;;;;;15.89;97.49;101450.00;5056490;28;20033;-76
2023/08/08 00:28:25;;;;;;;4.28;1.70;;;;;;;15.87;97.44;101442.16;5038058;28;20056;-76
2023/08/08 00:30:51;;;;;;;4.13;1.77;;;;;;;15.89;97.52;101439.44;5056001;28;20228;-76
2023/08/08 00:33:16;;;;;;;3.60;1.48;;;;;;;15.90;97.40;101441.16;5056579;28;20045;-76
2023/08/08 00:35:42;;;;;;;6.80;2.08;;;;;;;15.89;97.54;101445.56;5055917;28;20037;-76
2023/08/08 00:38:07;;;;;;;4.97;1.88;;;;;;;15.90;97.48;101446.44;5056555;28;20091;-76
2023/08/08 00:40:33;;;;;;;6.40;1.80;;;;;;;15.89;97.41;101445.56;5055750;28;20091;-76
2023/08/08 00:42:58;;;;;;;2.90;1.48;;;;;;;15.89;97.36;101445.56;5055963;28;20259;-77
2023/08/08 00:45:24;;;;;;;2.20;1.40;;;;;;;15.89;97.28;101444.72;5056005;28;20029;-77
2023/08/08 00:47:49;;;;;;;3.03;1.88;;;;;;;15.89;97.13;101448.22;5055830;28;20035;-77
2023/08/08 00:50:15;;;;;;;5.20;1.92;;;;;;;15.89;97.20;101445.56;5054825;28;20029;-77
2023/08/08 00:52:42;;;;;;;3.53;1.55;;;;;;;15.88;97.07;101433.31;5055671;28;20104;-77
2023/08/08 00:55:08;;;;;;;3.50;1.35;;;;;;;15.89;97.25;101437.66;5055871;28;20209;-77
2023/08/08 00:57:35;;;;;;;1.77;1.20;;;;;;;15.88;96.96;101433.31;5055696;28;20086;-77
2023/08/08 01:00:00;;;;;;;2.97;1.40;;;;;;;15.86;96.68;101434.31;5038340;28;20036;-77
2023/08/08 01:05:02;;;;;;;2.47;1.50;;;;;;;15.85;96.45;101435.28;4114963;22;20069;-76
2023/08/08 01:07:46;;;;;;;1.33;1.23;;;;;;;15.84;96.24;101433.53;5056689;28;20065;-76
2023/08/08 01:10:16;;;;;;;1.98;1.10;;;;;;;15.82;96.05;101441.53;5055638;28;20104;-76
2023/08/08 01:12:46;;;;;;;2.25;1.63;;;;;;;15.81;95.82;101437.22;5056039;28;20033;-76
2023/08/08 01:15:13;;;;;;;3.80;1.25;;;;;;;15.80;95.72;101442.56;5055433;28;20111;-76
2023/08/08 01:17:41;;;;;;;1.35;1.23;;;;;;;15.79;95.68;101440.84;5054655;28;20373;-76
2023/08/08 01:20:10;;;;;;;1.23;1.17;;;;;;;15.76;95.37;101435.75;5055400;28;20138;-76
2023/08/08 01:22:45;;;;;;;2.10;1.20;;;;;;;15.76;95.01;101433.13;5055300;28;20041;-76
2023/08/08 01:25:10;;;;;;;1.73;1.15;;;;;;;15.72;94.74;101435.03;5055225;28;20430;-76
2023/08/08 01:27:36;;;;;;;2.60;1.48;;;;;;;15.72;94.63;101442.97;5055204;28;20235;-76
2023/08/08 01:30:02;;;;;;;1.55;1.27;;;;;;;15.70;94.44;101432.47;5055187;28;20044;-76
2023/08/08 01:32:29;;;;;;;1.88;1.42;;;;;;;15.69;94.73;101441.31;5055054;28;20029;-76
2023/08/08 01:34:54;;;;;;;1.42;1.20;;;;;;;15.69;94.71;101436.03;5042071;28;20336;-76
2023/08/08 01:37:29;;;;;;;3.05;1.63;;;;;;;15.68;94.87;101430.81;5055113;28;20092;-76
2023/08/08 01:39:58;;;;;;;2.25;1.50;;;;;;;15.66;94.53;101432.69;5055335;28;20335;-76
2023/08/08 01:42:25;;;;;;;2.78;1.20;;;;;;;15.64;94.33;101429.28;5055047;28;20220;-76
2023/08/08 01:44:50;;;;;;;2.08;1.50;;;;;;;15.63;94.37;101431.09;5055263;28;20339;-76
2023/08/08 01:47:15;;;;;;;1.73;1.30;;;;;;;15.62;94.27;101429.38;5055032;28;20025;-76
2023/08/08 01:49:41;;;;;;;2.97;1.50;;;;;;;15.63;94.42;101427.59;5055020;28;20298;-76
2023/08/08 01:52:06;;;;;;;2.08;1.25;;;;;;;15.61;94.37;101435.59;5055420;28;20037;-76
2023/08/08 01:54:32;;;;;;;3.58;1.55;;;;;;;15.60;93.86;101433.03;5055143;28;20032;-76
2023/08/08 01:56:57;;;;;;;2.30;1.40;;;;;;;15.58;93.80;101421.69;5037289;28;20032;-76
2023/08/08 01:59:23;;;;;;;4.15;1.40;;;;;;;15.57;93.75;101427.91;5036474;28;20032;-76
2023/08/08 02:01:48;;;;;;;2.55;1.60;;;;;;;15.54;93.79;101427.13;5055179;28;20351;-76
2023/08/08 02:04:14;;;;;;;1.85;1.13;;;;;;;15.54;93.81;101428.94;5054888;28;20052;-76
2023/08/08 02:06:39;;;;;;;1.58;1.25;;;;;;;15.53;93.75;101421.94;5036696;28;20021;-76
2023/08/08 02:09:04;;;;;;;5.50;1.30;;;;;;;15.53;93.51;101420.16;5054783;28;20040;-76
2023/08/08 02:11:30;;;;;;;2.35;1.27;;;;;;;15.51;93.31;101419.38;5054649;28;20025;-76
2023/08/08 02:13:55;;;;;;;2.33;1.30;;;;;;;15.50;93.32;101420.31;5055157;28;20039;-76
2023/08/08 02:16:21;;;;;;;1.63;1.25;;;;;;;15.49;93.18;101407.19;5054705;28;20017;-76
2023/08/08 02:18:46;;;;;;;2.10;1.10;;;;;;;15.46;93.01;101410.84;5055056;28;20028;-76
2023/08/08 02:21:11;;;;;;;1.10;1.00;;;;;;;15.46;92.95;101418.78;5054816;28;20060;-76
2023/08/08 02:23:37;;;;;;;4.28;1.48;;;;;;;15.45;93.14;101413.56;5054580;28;20041;-76
2023/08/08 02:26:02;;;;;;;1.83;1.13;;;;;;;15.44;92.75;101425.03;5055112;28;20037;-76
2023/08/08 02:28:28;;;;;;;2.17;1.30;;;;;;;15.41;92.55;101425.19;5055928;28;20064;-76
2023/08/08 02:30:54;;;;;;;2.13;1.17;;;;;;;15.40;92.96;101415.59;5058729;28;20039;-76
2023/08/08 02:33:19;;;;;;;1.58;1.30;;;;;;;15.39;92.54;101417.38;5058764;28;20064;-73
2023/08/08 02:35:45;;;;;;;1.02;0.98;;;;;;;15.38;92.34;101420.09;5049095;28;20036;-76
2023/08/08 02:38:10;;;;;;;1.98;0.80;;;;;;;15.36;92.25;101410.47;5038475;28;20098;-76
2023/08/08 02:40:36;;;;;;;2.47;1.40;;;;;;;15.35;92.33;101411.41;5047884;28;20044;-76
2023/08/08 02:43:01;;;;;;;2.15;0.95;;;;;;;15.34;92.32;101406.22;5058121;28;20099;-76
2023/08/08 02:45:26;;;;;;;1.88;1.10;;;;;;;15.31;92.09;101409.84;5057863;28;20070;-76
2023/08/08 02:47:52;;;;;;;0.90;0.80;;;;;;;15.31;91.86;101403.72;5058289;28;20037;-75
2023/08/08 02:50:17;;;;;;;2.65;1.30;;;;;;;15.30;92.20;101402.03;5057567;28;20021;-75
2023/08/08 02:52:43;;;;;;;3.05;1.13;;;;;;;15.28;91.87;101396.81;5057993;28;20071;-76
2023/08/08 02:55:08;;;;;;;2.90;1.00;;;;;;;15.27;91.71;101397.75;5058123;28;20033;-73
2023/08/08 02:57:34;;;;;;;1.52;0.80;;;;;;;15.26;91.87;101400.47;5057626;28;20225;-73
2023/08/08 02:59:59;;;;;;;4.05;1.10;;;;;;;15.25;91.92;101404.03;5057796;28;20252;-73
2023/08/08 03:02:24;;;;;;;2.33;1.15;;;;;;;15.23;91.72;101396.19;5057762;28;20067;-73
2023/08/08 03:04:50;;;;;;;1.45;0.80;;;;;;;15.21;91.59;101392.78;5057597;28;20370;-73
2023/08/08 03:07:15;;;;;;;2.20;1.50;;;;;;;15.20;91.72;101390.22;5057637;28;20082;-73
2023/08/08 03:09:41;;;;;;;1.17;0.98;;;;;;;15.19;91.53;101394.66;5057329;28;20029;-73
2023/08/08 03:12:06;;;;;;;1.60;1.08;;;;;;;15.18;91.63;101392.94;5057775;28;20335;-73
2023/08/08 03:14:33;;;;;;;1.60;0.90;;;;;;;15.17;91.36;101393.84;5057535;28;20048;-73
2023/08/08 03:16:59;;;;;;;4.03;0.95;;;;;;;15.15;91.23;101391.31;5057461;28;20029;-73
2023/08/08 03:19:24;;;;;;;1.02;0.90;;;;;;;15.14;91.20;101394.88;5057431;28;20029;-73
2023/08/08 03:21:50;;;;;;;1.33;0.90;;;;;;;15.14;91.32;101396.69;5057459;28;20027;-73
2023/08/08 03:24:15;;;;;;;3.30;0.90;;;;;;;15.11;90.83;101402.94;5057147;28;20060;-73
2023/08/08 03:26:40;;;;;;;2.42;1.17;;;;;;;15.08;90.70;101392.56;5057102;28;20035;-73
2023/08/08 03:29:09;;;;;;;1.27;0.80;;;;;;;15.08;90.46;101400.47;5057100;28;20245;-73
2023/08/08 03:31:35;;;;;;;0.98;0.75;;;;;;;15.05;90.25;101395.34;5056904;28;20227;-73
2023/08/08 03:34:00;;;;;;;2.30;1.35;;;;;;;15.05;90.23;101392.72;5056885;28;20043;-73
2023/08/08 03:36:25;;;;;;;2.47;0.80;;;;;;;15.03;90.19;101393.75;5056783;28;20041;-73
2023/08/08 03:38:51;;;;;;;1.67;0.98;;;;;;;15.01;90.00;101387.66;5057085;28;20037;-73
2023/08/08 03:41:17;;;;;;;2.03;1.00;;;;;;;14.99;90.36;101385.13;5055639;28;20039;-73
2023/08/08 03:43:42;;;;;;;0.80;0.80;;;;;;;14.97;90.19;101382.56;5057306;28;20063;-73
2023/08/08 03:46:07;;;;;;;3.83;0.90;;;;;;;14.97;90.16;101386.97;5056930;28;20200;-73
2023/08/08 03:48:33;;;;;;;3.25;1.13;;;;;;;14.96;90.32;101375.56;5056422;28;20335;-73
2023/08/08 03:50:58;;;;;;;6.20;1.10;;;;;;;14.96;90.32;101377.34;5056961;28;20046;-73
2023/08/08 03:53:24;;;;;;;1.38;0.60;;;;;;;14.94;90.22;101369.53;5056687;28;20335;-73
2023/08/08 03:55:49;;;;;;;2.20;0.98;;;;;;;14.94;90.30;101368.69;5038669;28;20273;-73
2023/08/08 03:58:14;;;;;;;1.40;1.00;;;;;;;14.93;90.46;101370.44;5038459;28;20029;-73
2023/08/08 04:00:45;;;;;;;1.35;0.65;;;;;;;14.91;90.35;101363.53;5056262;28;20043;-73
2023/08/08 04:03:14;;;;;;;2.45;1.25;;;;;;;14.90;90.50;101367.97;5056385;28;20271;-73
2023/08/08 04:05:39;;;;;;;1.98;1.17;;;;;;;14.90;90.25;101367.97;5055914;28;20366;-73
2023/08/08 04:08:05;;;;;;;1.55;0.90;;;;;;;14.89;90.33;101365.41;5056424;28;20071;-73
2023/08/08 04:10:30;;;;;;;0.80;0.80;;;;;;;14.87;90.16;101365.47;5056056;28;20365;-73
2023/08/08 04:12:55;;;;;;;3.65;0.88;;;;;;;14.86;90.16;101368.19;5056510;28;20275;-73
2023/08/08 04:15:21;;;;;;;1.45;0.85;;;;;;;14.86;90.20;101376.97;5055766;28;20232;-73
2023/08/08 04:17:46;;;;;;;1.38;1.00;;;;;;;14.84;90.25;101364.78;5038343;28;20462;-73
2023/08/08 04:20:12;;;;;;;0.85;0.60;;;;;;;14.83;90.25;101366.56;5056130;28;20064;-73
2023/08/08 04:22:38;;;;;;;2.22;1.00;;;;;;;14.82;90.23;101367.50;5056334;28;20122;-73
2023/08/08 04:25:04;;;;;;;0.70;0.70;;;;;;;14.82;90.17;101364.00;5038098;28;20193;-73
2023/08/08 04:27:29;;;;;;;1.38;0.60;;;;;;;14.80;90.02;101368.50;5055720;28;20040;-73
2023/08/08 04:29:55;;;;;;;1.27;0.60;;;;;;;14.79;90.00;101370.31;5056141;28;20028;-73
2023/08/08 04:32:20;;;;;;;1.73;0.70;;;;;;;14.78;89.95;101368.59;5055645;28;20040;-73
2023/08/08 04:34:45;;;;;;;2.15;0.80;;;;;;;14.76;90.15;101368.66;5037930;28;20424;-73
2023/08/08 04:37:11;;;;;;;2.83;1.08;;;;;;;14.74;89.95;101367.03;5056006;28;20051;-73
2023/08/08 04:39:36;;;;;;;2.20;0.88;;;;;;;14.73;89.88;101366.16;5055436;28;20033;-73
2023/08/08 04:42:02;;;;;;;2.28;0.90;;;;;;;14.72;89.72;101374.19;5055894;28;20041;-73
2023/08/08 04:44:27;;;;;;;2.40;0.90;;;;;;;14.70;89.74;101378.69;5055787;28;20039;-73
2023/08/08 04:46:53;;;;;;;2.90;0.90;;;;;;;14.69;89.76;101377.78;5055912;28;20025;-73
2023/08/08 04:49:18;;;;;;;1.73;0.82;;;;;;;14.69;89.53;101376.94;5055231;28;20083;-73
2023/08/08 04:51:43;;;;;;;2.78;0.82;;;;;;;14.68;89.52;101378.75;5055881;28;20037;-73
2023/08/08 04:54:09;;;;;;;3.22;0.70;;;;;;;14.67;89.92;101381.44;5055301;28;20036;-73
2023/08/08 04:56:34;;;;;;;2.45;1.58;;;;;;;14.66;89.88;101371.81;5037567;28;20048;-73
2023/08/08 04:58:59;;;;;;;1.35;0.60;;;;;;;14.66;89.79;101370.06;5055690;28;20043;-73
2023/08/08 05:01:25;;;;;;;2.63;1.13;;;;;;;14.65;89.75;101381.53;5055108;28;20100;-73
2023/08/08 05:03:50;;;;;;;1.38;0.90;;;;;;;14.66;89.76;101382.38;5055615;28;20216;-73
2023/08/08 05:06:16;;;;;;;1.25;0.65;;;;;;;14.64;89.83;101384.22;5055087;28;20025;-73
2023/08/08 05:08:41;;;;;;;2.10;0.77;;;;;;;14.63;90.17;101379.91;5055464;28;20040;-73
2023/08/08 05:11:07;;;;;;;1.13;0.73;;;;;;;14.63;90.23;101383.38;5055488;28;20225;-73
2023/08/08 05:13:32;;;;;;;1.20;0.90;;;;;;;14.63;90.24;101383.38;5055390;28;20090;-73
2023/08/08 05:15:58;;;;;;;3.65;1.05;;;;;;;14.61;90.07;101382.59;5037194;28;20215;-73
2023/08/08 05:18:23;;;;;;;1.15;0.70;;;;;;;14.62;90.12;101381.66;5055042;28;20063;-73
2023/08/08 05:20:49;;;;;;;2.35;0.88;;;;;;;14.62;90.34;101380.81;5055316;28;20040;-73
2023/08/08 05:23:14;;;;;;;0.93;0.70;;;;;;;14.62;90.20;101384.28;5055229;28;20037;-73
2023/08/08 05:25:40;;;;;;;2.97;0.73;;;;;;;14.61;90.06;101377.34;5054926;28;20250;-73
2023/08/08 05:28:06;;;;;;;1.48;0.75;;;;;;;14.62;90.10;101386.09;5055212;28;20087;-73
2023/08/08 05:30:31;;;;;;;3.17;0.90;;;;;;;14.62;90.26;101388.72;5037115;28;20041;-73
2023/08/08 05:32:56;;;;;;;3.00;0.90;;;;;;;14.60;90.46;101388.78;5055306;28;20041;-73
2023/08/08 05:35:22;;;;;;;1.88;0.90;;;;;;;14.62;90.20;101394.00;5054422;28;20104;-73
2023/08/08 05:37:47;;;;;;;2.30;0.90;;;;;;;14.62;90.39;101392.19;5054998;28;20032;-73
2023/08/08 05:40:12;;;;;;;0.85;0.57;;;;;;;14.61;90.45;101390.50;5054762;28;20040;-73
2023/08/08 05:42:38;;;;;;;2.40;0.82;;;;;;;14.61;90.33;101387.00;5054953;28;20104;-73
2023/08/08 05:45:04;;;;;;;0.70;0.60;;;;;;;14.62;90.59;101397.47;5055080;28;20029;-73
2023/08/08 05:47:30;;;;;;;1.45;0.60;;;;;;;14.61;90.38;101398.44;5054802;28;20045;-73
2023/08/08 05:49:55;;;;;;;1.88;0.65;;;;;;;14.61;90.47;101400.19;5055002;28;20041;-73
2023/08/08 05:52:21;;;;;;;0.65;0.63;;;;;;;14.59;90.18;101398.50;5054770;28;20310;-73
2023/08/08 05:54:47;;;;;;;0.93;0.60;;;;;;;14.60;90.22;101399.34;5054645;28;20036;-73
2023/08/08 05:57:12;;;;;;;0.90;0.68;;;;;;;14.59;89.80;101398.50;5054710;28;20033;-73
2023/08/08 05:59:37;;;;;;;1.73;0.50;;;;;;;14.60;89.92;101401.97;5054472;28;20025;-73
2023/08/08 06:02:03;;;;;;;0.95;0.60;;;;;;;14.58;90.08;101401.19;5054667;28;20056;-73
2023/08/08 06:04:28;;;;;;;0.82;0.50;;;;;;;14.59;90.18;101397.66;5057369;28;20056;-73
2023/08/08 06:06:54;;;;;;;0.57;0.50;;;;;;;14.58;90.10;101399.41;5058835;28;20033;-73
2023/08/08 06:09:19;;;;;;;3.28;0.70;;;;;;;14.58;89.76;101401.19;5058182;28;20064;-73
2023/08/08 06:11:45;;;;;;;3.97;0.77;;;;;;;14.58;89.78;101404.69;5058727;28;20025;-73
2023/08/08 06:14:10;;;;;;;2.35;0.77;;;;;;;14.58;89.70;101404.69;5058534;28;20100;-73
2023/08/08 06:16:35;;;;;;;1.40;0.47;;;;;;;14.57;89.70;101408.25;5058447;28;20104;-73
2023/08/08 06:19:01;;;;;;;1.30;0.30;;;;;;;14.57;89.85;101405.63;5059255;28;20021;-73
2023/08/08 06:21:26;;;;;;;3.05;1.13;;;;;;;14.56;89.80;101414.41;5058518;28;20134;-73
2023/08/08 06:23:54;;;;;;;1.45;0.60;;;;;;;14.56;89.43;101409.13;5058846;28;20036;-73
2023/08/08 06:26:21;;;;;;;0.52;0.50;;;;;;;14.55;88.90;101409.22;5058168;28;20035;-73
2023/08/08 06:28:47;;;;;;;2.05;0.73;;;;;;;14.55;88.42;101411.84;5058978;28;20037;-73
2023/08/08 06:31:12;;;;;;;1.00;0.52;;;;;;;14.54;88.39;101413.63;5058349;28;20082;-73
2023/08/08 06:33:38;;;;;;;0.70;0.50;;;;;;;14.54;88.88;101405.72;5058307;28;20036;-73
2023/08/08 06:36:03;;;;;;;1.50;0.68;;;;;;;14.54;88.73;101410.16;5058293;28;20104;-73
2023/08/08 06:38:33;;;;;;;0.50;0.40;;;;;;;14.54;88.53;101410.16;5058042;28;20040;-73
2023/08/08 06:40:59;;;;;;;2.17;0.47;;;;;;;14.54;88.20;101402.25;5058554;28;20037;-73
2023/08/08 06:43:24;;;;;;;2.13;0.68;;;;;;;14.53;87.65;101401.38;5057920;28;20377;-73
2023/08/08 06:45:50;;;;;;;3.10;0.55;;;;;;;14.54;87.73;101397.81;5058166;28;20248;-73
2023/08/08 06:48:15;;;;;;;1.77;0.60;;;;;;;14.55;87.44;101402.19;5039972;28;20059;-73
2023/08/08 06:50:40;;;;;;;1.30;0.57;;;;;;;14.56;87.69;101406.50;5057705;28;20025;-73
2023/08/08 06:53:06;;;;;;;1.38;0.40;;;;;;;14.57;87.60;101408.25;5057950;28;20036;-73
2023/08/08 06:55:31;;;;;;;0.68;0.40;;;;;;;14.58;87.40;101409.94;5057879;28;20032;-73
2023/08/08 06:57:56;;;;;;;1.48;0.47;;;;;;;14.57;86.67;101405.63;5058783;28;20033;-73
2023/08/08 07:00:22;;;;;;;5.85;0.88;;;;;;;14.58;86.90;101406.47;5057405;28;20329;-73
2023/08/08 07:02:47;;;;;;;0.45;0.40;;;;;;;14.57;86.85;101402.09;5058336;28;20043;-73
2023/08/08 07:05:13;;;;;;;4.55;0.93;;;;;;;14.58;86.64;101406.47;5057451;28;20075;-73
2023/08/08 07:07:38;;;;;;;2.53;0.60;;;;;;;14.57;86.72;101415.25;5057717;28;20063;-73
2023/08/08 07:10:05;;;;;;;1.13;0.60;;;;;;;14.58;86.71;101409.94;5058673;28;20032;-73
2023/08/08 07:12:30;;;;;;;2.70;0.68;;;;;;;14.57;86.99;101408.25;5057480;28;20037;-73
2023/08/08 07:14:55;;;;;;;2.53;0.60;;;;;;;14.57;86.56;101408.25;5057981;28;20020;-73
2023/08/08 07:17:21;;;;;;;0.98;0.45;;;;;;;14.59;86.65;101414.31;5056859;28;20092;-73
2023/08/08 07:19:46;;;;;;;2.65;0.63;;;;;;;14.60;86.58;101415.16;5039916;28;20037;-73
2023/08/08 07:22:12;;;;;;;1.23;1.02;;;;;;;14.61;86.49;101411.59;5057812;28;20157;-73
2023/08/08 07:24:38;;;;;;;1.30;0.77;;;;;;;14.63;86.03;101403.63;5057202;28;20031;-73
2023/08/08 07:27:04;;;;;;;2.03;0.60;;;;;;;14.64;86.26;101411.44;5057557;28;20037;-73
2023/08/08 07:29:30;;;;;;;1.42;0.60;;;;;;;14.65;86.14;101399.97;5057700;28;20339;-73
2023/08/08 07:31:57;;;;;;;1.25;0.60;;;;;;;14.66;85.74;101399.06;5039649;28;20200;-73
2023/08/08 07:34:23;;;;;;;0.70;0.50;;;;;;;14.67;85.48;101406.03;5057147;28;20044;-73
2023/08/08 07:36:48;;;;;;;1.05;0.57;;;;;;;14.69;85.03;101395.41;5057383;28;20231;-73
2023/08/08 07:39:14;;;;;;;0.73;0.52;;;;;;;14.70;84.82;101392.69;5057184;28;20037;-73
2023/08/08 07:41:40;;;;;;;1.42;0.55;;;;;;;14.72;84.71;101392.63;5056799;28;20228;-73
2023/08/08 07:44:05;;;;;;;0.80;0.50;;;;;;;14.73;84.70;101394.31;5057195;28;20037;-73
2023/08/08 07:46:32;;;;;;;1.92;1.13;;;;;;;14.74;84.85;101388.13;5056977;28;20100;-72
2023/08/08 07:48:59;;;;;;;1.58;0.63;;;;;;;14.75;84.83;101395.09;5057253;28;20040;-73
2023/08/08 07:51:25;;;;;;;1.25;0.70;;;;;;;14.78;84.82;101397.59;5056723;28;20032;-73
2023/08/08 07:53:50;;;;;;;2.08;0.60;;;;;;;14.78;84.59;101392.31;5057047;28;20393;-73
2023/08/08 07:56:15;;;;;;;3.28;0.55;;;;;;;14.80;84.33;101390.44;5057677;28;20075;-73
2023/08/08 07:58:41;;;;;;;1.52;0.63;;;;;;;14.82;84.40;101401.78;5038656;28;20243;-73
2023/08/08 08:01:06;;;;;;;1.35;0.40;;;;;;;14.84;84.38;101399.91;5057473;28;20469;-73
2023/08/08 08:03:32;;;;;;;1.13;0.60;;;;;;;14.86;84.37;101395.44;5056219;28;20028;-73
2023/08/08 08:05:57;;;;;;;2.17;0.70;;;;;;;14.89;84.33;101404.97;5056747;28;20072;-73
2023/08/08 08:08:24;;;;;;;1.67;0.55;;;;;;;14.90;84.53;101402.25;5056421;28;20129;-73
2023/08/08 08:10:50;;;;;;;0.77;0.55;;;;;;;14.92;84.72;101391.63;5056543;28;20021;-73
2023/08/08 08:13:16;;;;;;;0.57;0.50;;;;;;;14.94;84.88;101397.69;5056862;28;20037;-73
2023/08/08 08:15:41;;;;;;;0.98;0.70;;;;;;;14.97;84.88;101400.16;5056641;28;20356;-73
2023/08/08 08:18:07;;;;;;;1.02;0.60;;;;;;;14.98;84.86;101404.50;5057133;28;20347;-73
2023/08/08 08:20:32;;;;;;;1.95;0.60;;;;;;;15.01;84.50;101393.81;5057515;28;20032;-73
2023/08/08 08:22:58;;;;;;;0.73;0.60;;;;;;;15.02;84.33;101398.13;5056455;28;20032;-73
2023/08/08 08:25:23;;;;;;;2.17;0.60;;;;;;;15.04;83.93;101387.50;5055969;28;20036;-73
2023/08/08 08:27:48;;;;;;;3.08;0.70;;;;;;;15.06;83.79;101394.44;5056406;28;20041;-73
2023/08/08 08:30:14;;;;;;;2.03;0.85;;;;;;;15.06;83.92;101399.72;5038124;28;20049;-73
2023/08/08 08:32:41;;;;;;;2.50;0.60;;;;;;;15.08;83.82;101395.22;5055989;28;20104;-73
2023/08/08 08:35:07;;;;;;;0.50;0.50;;;;;;;15.10;84.15;101406.53;5056035;28;20033;-73
2023/08/08 08:37:34;;;;;;;2.53;0.68;;;;;;;15.12;83.81;101399.38;5056232;28;20086;-73
2023/08/08 08:40:00;;;;;;;3.78;0.82;;;;;;;15.13;83.26;101393.19;5056333;28;20036;-73
2023/08/08 08:42:27;;;;;;;0.50;0.50;;;;;;;15.13;82.11;101392.31;5056192;28;20074;-73
2023/08/08 08:44:57;;;;;;;0.60;0.40;;;;;;;15.14;81.60;101408.06;5056009;28;20040;-73
2023/08/08 08:47:24;;;;;;;1.10;0.60;;;;;;;15.14;80.61;101401.94;5056161;28;20048;-73
2023/08/08 08:49:51;;;;;;;0.82;0.50;;;;;;;15.14;80.54;101410.72;5057131;28;20043;-73
2023/08/08 08:52:17;;;;;;;0.93;0.60;;;;;;;15.14;80.15;101407.22;5055700;28;20116;-73
2023/08/08 08:54:42;;;;;;;1.95;0.50;;;;;;;15.15;79.94;101406.28;5056160;28;20029;-73
2023/08/08 08:57:08;;;;;;;1.77;0.50;;;;;;;15.17;79.76;101409.69;5056137;28;20047;-73
2023/08/08 08:59:33;;;;;;;0.75;0.70;;;;;;;15.18;79.92;101403.50;5056424;28;20037;-73
2023/08/08 09:01:59;;;;;;;0.98;0.88;;;;;;;15.17;79.18;101409.69;5056601;28;20079;-73
2023/08/08 09:04:26;;;;;;;0.50;0.50;;;;;;;15.20;79.47;101419.25;5055240;28;20056;-73
2023/08/08 09:06:52;;;;;;;2.65;0.98;;;;;;;15.22;80.28;101420.88;5055909;28;20474;-74
2023/08/08 09:09:21;;;;;;;0.70;0.70;;;;;;;15.25;80.16;101417.25;5056198;28;20359;-73
2023/08/08 09:11:48;;;;;;;;;;;;;;;15.28;80.11;101422.34;5057881;28;20101;-73
2023/08/08 09:14:21;;;;;;;0.63;0.50;;;;;;;15.29;79.70;101424.06;5038639;28;19913;-73
2023/08/08 09:16:47;;;;;;;1.17;0.68;;;;;;;15.29;79.94;101421.41;5056247;28;20041;-73
2023/08/08 09:19:14;;;;;;;0.85;0.50;;;;;;;15.30;80.13;101409.94;5038962;28;20029;-73
2023/08/08 09:21:39;;;;;;;0.63;0.60;;;;;;;15.31;80.25;101420.41;5057635;28;20044;-73
2023/08/08 09:24:05;;;;;;;3.10;0.68;;;;;;;15.32;80.52;101422.13;5056285;28;20100;-73
2023/08/08 09:26:30;;;;;;;1.75;0.80;;;;;;;15.34;80.34;101430.81;5056010;28;20198;-73
2023/08/08 09:28:56;;;;;;;1.60;0.60;;;;;;;15.36;81.03;101421.00;5056573;28;20055;-73
2023/08/08 09:31:25;;;;;;;1.42;0.65;;;;;;;15.37;80.97;101413.94;5055477;28;20064;-73
2023/08/08 09:33:51;;;;;;;;;;;;;;;15.38;81.04;101420.94;5056228;28;20032;-73
2023/08/08 09:36:17;;;;;;;0.75;0.75;;;;;;;15.40;81.14;101426.16;5055093;28;20238;-73
2023/08/08 09:38:42;;;;;;;1.20;0.73;;;;;;;15.41;81.06;101426.06;5055176;28;20033;-74
2023/08/08 09:41:08;;;;;;;3.22;0.88;;;;;;;15.44;81.58;101433.81;5037153;28;20339;-74
2023/08/08 09:43:34;;;;;;;0.80;0.80;;;;;;;15.45;81.72;101432.03;5055944;28;20060;-73
2023/08/08 09:45:59;;;;;;;2.90;0.60;;;;;;;15.46;81.13;101434.63;5055751;28;20037;-73
2023/08/08 09:48:32;;;;;;;0.80;0.70;;;;;;;15.48;81.30;101435.38;5054819;28;20314;-73
2023/08/08 09:51:01;;;;;;;1.70;0.77;;;;;;;15.49;81.26;101428.31;5055951;28;20043;-73
2023/08/08 09:53:27;;;;;;;0.50;0.50;;;;;;;15.49;80.95;101433.59;5055664;28;20100;-73
2023/08/08 09:55:56;;;;;;;2.50;1.00;;;;;;;15.49;80.99;101436.22;5055686;28;20136;-73
2023/08/08 09:58:22;;;;;;;2.10;1.00;;;;;;;15.49;80.85;101434.44;5055385;28;20041;-73
2023/08/08 10:00:50;;;;;;;6.22;0.93;;;;;;;15.52;81.05;101438.72;5055848;28;20040;-73
2023/08/08 10:03:19;;;;;;;2.17;0.50;;;;;;;15.54;80.88;101431.56;5056919;28;20033;-73
2023/08/08 10:05:44;;;;;;;;;;;;;;;15.54;80.64;101426.28;5056747;28;20037;-73
2023/08/08 10:08:10;;;;;;;2.60;0.90;;;;;;;15.55;81.10;101438.53;5055446;28;20099;-73
2023/08/08 10:10:37;;;;;;;4.38;0.85;;;;;;;15.58;81.40;101421.69;5055838;28;20056;-73
2023/08/08 10:13:03;;;;;;;2.42;0.60;;;;;;;15.60;81.40;101427.75;5038454;28;20028;-73
2023/08/08 10:15:28;;;;;;;0.60;0.57;;;;;;;15.60;81.52;101423.31;5054542;28;20036;-73
2023/08/08 10:17:57;;;;;;;4.22;0.85;;;;;;;15.63;81.67;101431.09;5038486;28;20040;-73
2023/08/08 10:20:24;;;;;;;3.35;0.80;;;;;;;15.66;81.53;101435.34;5055606;28;20029;-73
2023/08/08 10:22:54;;;;;;;2.03;0.98;;;;;;;15.67;81.05;101437.91;5056509;28;20078;-73
2023/08/08 10:25:24;;;;;;;2.40;0.80;;;;;;;15.68;80.80;101430.81;5055308;28;20377;-73
2023/08/08 10:28:01;;;;;;;2.42;0.70;;;;;;;15.68;80.53;101429.06;5057201;28;20040;-73
2023/08/08 10:30:26;;;;;;;1.88;0.80;;;;;;;15.69;80.38;101438.66;5055938;28;20361;-73
2023/08/08 10:32:52;;;;;;;1.33;0.63;;;;;;;15.69;80.77;101422.81;5038481;28;20025;-73
2023/08/08 10:35:17;;;;;;;3.63;1.08;;;;;;;15.72;81.03;101427.13;5055247;28;20033;-73
2023/08/08 10:37:53;;;;;;;1.55;0.90;;;;;;;15.75;80.45;101426.97;5055643;28;20357;-73
2023/08/08 10:40:19;;;;;;;2.05;0.95;;;;;;;15.76;80.08;101433.97;5055324;28;20025;-73
2023/08/08 10:42:46;;;;;;;2.55;0.80;;;;;;;15.76;79.21;101431.31;5056196;28;20350;-73
2023/08/08 10:45:14;;;;;;;0.77;0.77;;;;;;;15.76;79.45;101428.69;5055145;28;20112;-73
2023/08/08 10:47:41;;;;;;;1.83;0.88;;;;;;;15.79;79.87;101436.44;5054314;28;20322;-73
2023/08/08 10:50:15;;;;;;;2.38;0.68;;;;;;;15.80;79.87;101432.84;5057411;28;20051;-73
2023/08/08 10:52:52;;;;;;;3.08;0.90;;;;;;;15.82;79.83;101438.06;5059072;28;20127;-74
2023/08/08 10:55:22;;;;;;;1.27;0.80;;;;;;;15.83;80.18;101431.84;5058421;28;20277;-74
2023/08/08 10:57:55;;;;;;;2.38;0.90;;;;;;;15.84;80.36;101431.75;5058230;28;20063;-73
2023/08/08 11:00:24;;;;;;;0.77;0.50;;;;;;;15.85;80.76;101440.56;5059156;28;20063;-73
2023/08/08 11:02:51;;;;;;;0.98;0.60;;;;;;;15.86;80.35;101437.84;5058141;28;20032;-73
2023/08/08 11:05:17;;;;;;;2.45;1.00;;;;;;;15.88;80.93;101430.69;5040021;28;20033;-73
2023/08/08 11:07:42;;;;;;;1.33;0.80;;;;;;;15.90;80.93;101436.72;5059556;28;20251;-73
2023/08/08 11:10:08;;;;;;;3.95;0.93;;;;;;;15.96;81.43;101442.63;5058032;28;20111;-73
2023/08/08 11:12:34;;;;;;;1.05;0.68;;;;;;;15.98;81.51;101431.03;5059143;28;20043;-73
2023/08/08 11:14:59;;;;;;;1.40;0.70;;;;;;;16.01;81.26;101433.50;5059172;28;20033;-73
2023/08/08 11:17:25;;;;;;;2.35;0.70;;;;;;;16.04;80.74;101435.97;5058069;28;20032;-73
2023/08/08 11:19:50;;;;;;;0.50;0.50;;;;;;;16.06;80.68;101441.16;5059598;28;20029;-73
2023/08/08 11:22:16;;;;;;;1.45;0.88;;;;;;;16.07;80.23;101437.59;5059106;28;20041;-73
2023/08/08 11:24:41;;;;;;;4.03;0.60;;;;;;;16.08;80.26;101429.59;5058426;28;20255;-73